createdAt,value
2018-11-10T00:01:18.235Z,6.27
2018-11-10T00:03:45.591Z,6.57
2018-11-10T00:06:12.930Z,6.10
2018-11-10T00:08:40.299Z,6.10
2018-11-10T00:11:07.646Z,5.77
2018-11-10T00:13:35.023Z,5.90
2018-11-10T00:16:02.353Z,7.00
2018-11-10T00:18:29.731Z,6.40
2018-11-10T00:20:57.077Z,6.70
2018-11-10T00:23:24.445Z,5.60
2018-11-10T00:25:51.776Z,5.10
2018-11-10T00:28:19.140Z,6.10
2018-11-10T00:30:46.478Z,5.70
2018-11-10T00:33:13.870Z,6.70
2018-11-10T00:35:41.222Z,7.00
2018-11-10T00:38:08.586Z,5.80
2018-11-10T00:40:35.916Z,5.77
2018-11-10T00:43:03.288Z,5.60
2018-11-10T00:45:30.643Z,4.80
2018-11-10T00:47:58.004Z,6.00
2018-11-10T00:50:25.319Z,4.67
2018-11-10T00:52:52.668Z,5.23
2018-11-10T00:55:20.023Z,5.23
2018-11-10T00:57:47.431Z,5.93
2018-11-10T01:00:14.812Z,4.97
2018-11-10T01:02:43.371Z,5.70
2018-11-10T01:05:10.708Z,5.10
2018-11-10T01:07:38.326Z,5.30
2018-11-10T01:10:06.174Z,5.23
2018-11-10T01:12:33.543Z,4.70
2018-11-10T01:15:00.871Z,5.03
2018-11-10T01:17:28.239Z,4.80
2018-11-10T01:19:55.547Z,6.07
2018-11-10T01:22:22.892Z,5.07
2018-11-10T01:24:50.266Z,4.80
2018-11-10T01:27:17.624Z,5.33
2018-11-10T01:29:44.956Z,4.37
2018-11-10T01:32:12.333Z,4.73
2018-11-10T01:34:39.696Z,4.60
2018-11-10T01:37:07.050Z,5.00
2018-11-10T01:39:34.410Z,4.93
2018-11-10T01:42:01.737Z,4.50
2018-11-10T01:44:29.101Z,5.23
2018-11-10T01:46:56.563Z,4.60
2018-11-10T01:49:23.946Z,4.40
2018-11-10T01:51:51.328Z,4.47
2018-11-10T01:54:18.698Z,4.30
2018-11-10T01:56:46.025Z,4.80
2018-11-10T01:59:13.380Z,4.80
2018-11-10T02:01:40.707Z,4.40
2018-11-10T02:04:08.054Z,5.00
2018-11-10T02:06:35.419Z,4.27
2018-11-10T02:09:02.874Z,4.97
2018-11-10T02:11:30.212Z,4.70
2018-11-10T02:13:57.580Z,4.70
2018-11-10T02:16:24.906Z,4.57
2018-11-10T02:18:52.264Z,4.37
2018-11-10T02:21:19.652Z,4.90
2018-11-10T02:23:47.014Z,5.77
2018-11-10T02:26:14.346Z,4.27
2018-11-10T02:28:41.718Z,4.40
2018-11-10T02:31:09.051Z,4.80
2018-11-10T02:33:36.426Z,4.70
2018-11-10T02:36:03.759Z,4.47
2018-11-10T02:38:31.152Z,4.50
2018-11-10T02:40:58.455Z,4.30
2018-11-10T02:43:25.810Z,4.93
2018-11-10T02:45:53.139Z,4.13
2018-11-10T02:48:20.500Z,4.63
2018-11-10T02:50:47.855Z,4.40
2018-11-10T02:53:15.257Z,5.20
2018-11-10T02:55:42.603Z,4.73
2018-11-10T02:58:09.946Z,3.77
2018-11-10T03:00:37.287Z,4.80
2018-11-10T03:03:04.652Z,4.80
2018-11-10T03:05:32.018Z,4.30
2018-11-10T03:07:59.388Z,4.50
2018-11-10T03:10:26.761Z,4.83
2018-11-10T03:12:54.118Z,4.10
2018-11-10T03:15:21.455Z,4.13
2018-11-10T03:17:48.798Z,4.27
2018-11-10T03:20:16.205Z,4.60
2018-11-10T03:22:44.139Z,3.93
2018-11-10T03:25:11.534Z,4.80
2018-11-10T03:27:39.097Z,4.60
2018-11-10T03:30:06.546Z,3.90
2018-11-10T03:32:33.929Z,4.50
2018-11-10T03:35:01.314Z,4.30
2018-11-10T03:37:28.669Z,4.27
2018-11-10T03:39:56.032Z,4.42
2018-11-10T03:42:23.358Z,4.43
2018-11-10T03:44:50.709Z,4.50
2018-11-10T03:47:18.035Z,4.03
2018-11-10T03:49:45.414Z,4.80
2018-11-10T03:52:12.770Z,3.90
2018-11-10T03:54:40.190Z,4.83
2018-11-10T03:57:07.520Z,4.30
2018-11-10T03:59:34.875Z,4.00
2018-11-10T04:02:02.207Z,4.27
2018-11-10T04:04:29.602Z,4.60
2018-11-10T04:06:56.942Z,4.17
2018-11-10T04:09:24.286Z,4.23
2018-11-10T04:11:51.637Z,4.10
2018-11-10T04:14:19.002Z,4.00
2018-11-10T04:16:46.331Z,3.70
2018-11-10T04:19:13.874Z,3.70
2018-11-10T04:21:41.205Z,4.60
2018-11-10T04:24:08.696Z,5.10
2018-11-10T04:26:36.056Z,4.27
2018-11-10T04:29:03.428Z,4.50
2018-11-10T04:31:30.881Z,4.30
2018-11-10T04:33:58.299Z,4.07
2018-11-10T04:36:25.750Z,4.03
2018-11-10T04:38:53.127Z,4.17
2018-11-10T04:41:20.447Z,4.10
2018-11-10T04:43:47.843Z,4.63
2018-11-10T04:46:15.299Z,4.60
2018-11-10T04:48:42.660Z,3.73
2018-11-10T04:51:10.027Z,4.73
2018-11-10T04:53:37.419Z,4.33
2018-11-10T04:56:04.791Z,3.90
2018-11-10T04:58:32.158Z,4.20
2018-11-10T05:00:59.517Z,4.20
2018-11-10T05:03:26.878Z,3.73
2018-11-10T05:05:54.229Z,3.87
2018-11-10T05:08:21.579Z,4.03
2018-11-10T05:10:48.923Z,4.23
2018-11-10T05:13:16.262Z,3.63
2018-11-10T05:15:43.633Z,4.70
2018-11-10T05:18:10.959Z,3.90
2018-11-10T05:20:38.326Z,4.03
2018-11-10T05:23:05.674Z,3.87
2018-11-10T05:25:33.053Z,4.30
2018-11-10T05:28:00.403Z,4.10
2018-11-10T05:30:27.762Z,4.10
2018-11-10T05:32:55.123Z,3.80
2018-11-10T05:35:22.518Z,3.97
2018-11-10T05:37:49.842Z,4.70
2018-11-10T05:40:17.226Z,4.40
2018-11-10T05:42:44.559Z,4.60
2018-11-10T05:45:11.929Z,4.00
2018-11-10T05:47:39.377Z,3.80
2018-11-10T05:50:07.018Z,3.57
2018-11-10T05:52:34.398Z,3.27
2018-11-10T05:55:01.753Z,3.60
2018-11-10T05:57:29.076Z,3.90
2018-11-10T05:59:56.421Z,4.57
2018-11-10T06:02:23.755Z,3.93
2018-11-10T06:04:51.115Z,4.03
2018-11-10T06:07:18.458Z,4.00
2018-11-10T06:09:45.945Z,3.53
2018-11-10T06:12:13.239Z,3.60
2018-11-10T06:14:40.608Z,3.80
2018-11-10T06:17:08.063Z,4.00
2018-11-10T06:19:35.427Z,3.37
2018-11-10T06:22:02.760Z,3.90
2018-11-10T06:24:30.125Z,3.70
2018-11-10T06:26:57.448Z,4.53
2018-11-10T06:29:24.941Z,4.50
2018-11-10T06:31:52.280Z,3.37
2018-11-10T06:34:19.685Z,3.57
2018-11-10T06:36:47.046Z,3.90
2018-11-10T06:39:14.420Z,3.90
2018-11-10T06:41:41.753Z,4.13
2018-11-10T06:44:09.317Z,3.67
2018-11-10T06:46:36.654Z,3.37
2018-11-10T06:49:04.024Z,4.57
2018-11-10T06:51:31.362Z,3.93
2018-11-10T06:53:58.747Z,4.10
2018-11-10T06:56:26.085Z,3.80
2018-11-10T06:58:53.431Z,3.60
2018-11-10T07:01:20.766Z,3.40
2018-11-10T07:03:48.096Z,4.20
2018-11-10T07:06:15.455Z,3.40
2018-11-10T07:08:42.800Z,3.53
2018-11-10T07:11:10.166Z,3.50
2018-11-10T07:13:37.508Z,3.43
2018-11-10T07:16:04.886Z,4.20
2018-11-10T07:18:32.226Z,3.50
2018-11-10T07:20:59.584Z,3.43
2018-11-10T07:23:26.914Z,3.70
2018-11-10T07:25:54.263Z,3.00
2018-11-10T07:28:21.611Z,4.00
2018-11-10T07:30:48.986Z,3.90
2018-11-10T07:33:16.348Z,4.30
2018-11-10T07:35:43.703Z,3.90
2018-11-10T07:38:11.048Z,4.13
2018-11-10T07:40:38.401Z,4.27
2018-11-10T07:43:05.764Z,3.40
2018-11-10T07:45:33.129Z,3.67
2018-11-10T07:48:00.469Z,3.90
2018-11-10T07:50:27.850Z,3.70
2018-11-10T07:52:55.243Z,3.33
2018-11-10T07:55:22.609Z,4.70
2018-11-10T07:57:49.957Z,4.23
2018-11-10T08:00:18.209Z,3.73
2018-11-10T08:02:45.568Z,3.37
2018-11-10T08:05:13.455Z,3.87
2018-11-10T08:07:41.616Z,3.30
2018-11-10T08:10:09.389Z,4.10
2018-11-10T08:12:36.902Z,4.00
2018-11-10T08:15:04.815Z,3.80
2018-11-10T08:17:32.181Z,4.10
2018-11-10T08:19:59.542Z,4.50
2018-11-10T08:22:26.875Z,5.13
2018-11-10T08:24:54.259Z,4.17
2018-11-10T08:27:21.875Z,4.73
2018-11-10T08:29:49.230Z,4.53
2018-11-10T08:32:16.589Z,5.07
2018-11-10T08:34:43.957Z,4.80
2018-11-10T08:37:11.318Z,5.23
2018-11-10T08:39:38.679Z,4.77
2018-11-10T08:42:06.032Z,4.47
2018-11-10T08:44:34.270Z,4.70
2018-11-10T08:47:01.641Z,6.10
2018-11-10T08:49:29.015Z,6.27
2018-11-10T08:51:56.344Z,6.00
2018-11-10T08:54:23.776Z,5.83
2018-11-10T08:56:51.348Z,6.60
2018-11-10T08:59:18.734Z,5.07
2018-11-10T09:01:46.060Z,8.00
2018-11-10T09:04:13.399Z,5.23
2018-11-10T09:06:40.769Z,6.37
2018-11-10T09:09:08.462Z,4.43
2018-11-10T09:11:35.810Z,5.20
2018-11-10T09:14:03.142Z,3.53
2018-11-10T09:16:30.485Z,4.50
2018-11-10T09:18:57.828Z,5.03
2018-11-10T09:21:25.280Z,4.43
2018-11-10T09:23:52.552Z,4.97
2018-11-10T09:26:19.912Z,6.00
2018-11-10T09:28:47.265Z,5.23
2018-11-10T09:31:14.626Z,5.33
2018-11-10T09:33:42.007Z,5.50
2018-11-10T09:36:09.376Z,4.77
2018-11-10T09:38:36.694Z,4.57
2018-11-10T09:41:04.082Z,4.83
2018-11-10T09:43:31.435Z,5.20
2018-11-10T09:45:58.807Z,4.90
2018-11-10T09:48:26.205Z,4.13
2018-11-10T09:50:53.601Z,4.50
2018-11-10T09:53:20.948Z,4.77
2018-11-10T09:55:48.295Z,5.60
2018-11-10T09:58:15.631Z,5.10
2018-11-10T10:00:42.988Z,4.77
2018-11-10T10:03:10.319Z,5.20
2018-11-10T10:05:37.691Z,4.87
2018-11-10T10:08:05.087Z,4.80
2018-11-10T10:10:32.440Z,5.43
2018-11-10T10:12:59.762Z,4.00
2018-11-10T10:15:27.137Z,4.90
2018-11-10T10:17:54.479Z,4.43
2018-11-10T10:20:21.851Z,4.67
2018-11-10T10:22:49.758Z,4.77
2018-11-10T10:25:17.603Z,5.10
2018-11-10T10:27:45.748Z,4.50
2018-11-10T10:30:15.079Z,4.70
2018-11-10T10:32:43.099Z,4.70
2018-11-10T10:35:10.692Z,4.40
2018-11-10T10:37:37.895Z,3.60
2018-11-10T10:40:05.979Z,4.17
2018-11-10T10:42:33.335Z,3.73
2018-11-10T10:45:00.692Z,4.50
2018-11-10T10:47:28.013Z,4.53
2018-11-10T10:49:55.340Z,4.37
2018-11-10T10:52:22.691Z,4.60
2018-11-10T10:54:50.099Z,4.23
2018-11-10T10:57:17.455Z,3.53
2018-11-10T10:59:44.778Z,4.70
2018-11-10T11:02:17.447Z,4.40
2018-11-10T11:04:49.105Z,4.07
2018-11-10T11:07:16.869Z,3.80
2018-11-10T11:09:44.306Z,3.90
2018-11-10T11:12:11.634Z,3.30
2018-11-10T11:14:38.982Z,3.53
2018-11-10T11:17:06.330Z,3.33
2018-11-10T11:19:33.682Z,3.50
2018-11-10T11:22:01.111Z,4.10
2018-11-10T11:24:28.399Z,3.50
2018-11-10T11:26:55.761Z,3.57
2018-11-10T11:29:23.267Z,4.13
2018-11-10T11:31:50.466Z,4.60
2018-11-10T11:34:17.838Z,3.63
2018-11-10T11:36:45.200Z,3.50
2018-11-10T11:39:12.556Z,3.50
2018-11-10T11:41:40.295Z,3.83
2018-11-10T11:44:08.204Z,3.93
2018-11-10T11:46:35.757Z,3.90
2018-11-10T11:49:03.089Z,2.87
2018-11-10T11:51:30.441Z,3.77
2018-11-10T11:53:57.785Z,3.37
2018-11-10T11:56:25.143Z,3.63
2018-11-10T11:58:52.476Z,3.77
2018-11-10T12:01:19.836Z,3.40
2018-11-10T12:03:47.173Z,3.80
2018-11-10T12:06:14.535Z,3.53
2018-11-10T12:08:41.871Z,3.50
2018-11-10T12:11:09.218Z,4.47
2018-11-10T12:13:36.563Z,4.33
2018-11-10T12:16:03.933Z,3.20
2018-11-10T12:18:31.253Z,3.67
2018-11-10T12:20:58.687Z,3.53
2018-11-10T12:23:25.990Z,4.13
2018-11-10T12:25:53.346Z,3.80
2018-11-10T12:28:20.704Z,3.33
2018-11-10T12:30:48.067Z,3.93
2018-11-10T12:33:15.449Z,3.30
2018-11-10T12:35:42.758Z,2.90
2018-11-10T12:38:10.115Z,4.10
2018-11-10T12:40:37.453Z,4.37
2018-11-10T12:43:05.028Z,3.50
2018-11-10T12:45:32.349Z,3.50
2018-11-10T12:47:59.716Z,4.20
2018-11-10T12:50:27.052Z,3.93
2018-11-10T12:52:54.435Z,3.77
2018-11-10T12:55:21.778Z,4.10
2018-11-10T12:57:49.154Z,3.50
2018-11-10T13:00:17.290Z,4.07
2018-11-10T13:02:45.008Z,3.70
2018-11-10T13:05:12.728Z,4.60
2018-11-10T13:07:41.027Z,4.30
2018-11-10T13:10:08.959Z,3.60
2018-11-10T13:12:36.298Z,3.97
2018-11-10T13:15:04.129Z,4.17
2018-11-10T13:17:31.600Z,4.03
2018-11-10T13:19:58.895Z,4.47
2018-11-10T13:22:26.238Z,4.00
2018-11-10T13:24:53.556Z,3.80
2018-11-10T13:27:20.904Z,3.10
2018-11-10T13:29:48.243Z,3.07
2018-11-10T13:32:15.607Z,4.10
2018-11-10T13:34:42.969Z,3.70
2018-11-10T13:37:10.334Z,4.10
2018-11-10T13:39:37.686Z,4.70
2018-11-10T13:42:05.359Z,4.60
2018-11-10T13:44:32.788Z,4.07
2018-11-10T13:47:00.137Z,3.87
2018-11-10T13:49:27.509Z,3.87
2018-11-10T13:51:55.244Z,2.87
2018-11-10T13:54:22.210Z,4.03
2018-11-10T13:56:49.579Z,3.90
2018-11-10T13:59:16.965Z,3.50
2018-11-10T14:01:44.302Z,3.40
2018-11-10T14:04:11.632Z,4.13
2018-11-10T14:06:38.992Z,3.93
2018-11-10T14:09:07.398Z,3.53
2018-11-10T14:11:34.765Z,3.70
2018-11-10T14:14:02.107Z,3.77
2018-11-10T14:16:29.465Z,3.57
2018-11-10T14:18:56.805Z,3.47
2018-11-10T14:21:24.163Z,3.30
2018-11-10T14:23:51.538Z,2.80
2018-11-10T14:26:18.906Z,3.50
2018-11-10T14:28:46.267Z,2.80
2018-11-10T14:31:13.744Z,3.37
2018-11-10T14:33:41.122Z,3.53
2018-11-10T14:36:08.466Z,3.13
2018-11-10T14:38:35.841Z,3.20
2018-11-10T14:41:03.202Z,3.43
2018-11-10T14:43:30.551Z,3.20
2018-11-10T14:45:57.907Z,3.47
2018-11-10T14:48:25.257Z,3.53
2018-11-10T14:50:52.609Z,3.10
2018-11-10T14:53:19.988Z,3.90
2018-11-10T14:55:47.306Z,3.27
2018-11-10T14:58:14.673Z,3.67
2018-11-10T15:00:42.006Z,3.80
2018-11-10T15:03:09.379Z,3.53
2018-11-10T15:05:36.768Z,3.10
2018-11-10T15:08:04.103Z,3.13
2018-11-10T15:10:31.454Z,2.33
2018-11-10T15:12:58.830Z,2.57
2018-11-10T15:15:26.186Z,2.80
2018-11-10T15:17:53.669Z,2.93
2018-11-10T15:20:20.933Z,6.43
2018-11-10T15:22:48.392Z,3.30
2018-11-10T15:25:17.196Z,2.57
2018-11-10T15:27:44.534Z,3.10
2018-11-10T15:30:13.609Z,2.80
2018-11-10T15:32:41.754Z,2.60
2018-11-10T15:35:10.476Z,3.40
2018-11-10T15:37:37.899Z,4.85
2018-11-10T15:45:56.951Z,4.90
2018-11-10T15:48:24.320Z,4.47
2018-11-10T15:50:51.726Z,5.97
2018-11-10T15:53:19.100Z,4.33
2018-11-10T15:55:46.431Z,5.40
2018-11-10T15:58:13.790Z,5.90
2018-11-10T16:00:41.235Z,5.00
2018-11-10T16:03:08.551Z,4.83
2018-11-10T16:05:35.877Z,5.07
2018-11-10T16:08:03.240Z,6.37
2018-11-10T16:10:30.652Z,5.67
2018-11-10T16:12:58.024Z,5.47
2018-11-10T16:15:25.363Z,6.60
2018-11-10T16:17:52.773Z,5.40
2018-11-10T16:20:20.709Z,6.93
2018-11-10T16:22:49.511Z,5.77
2018-11-10T16:25:17.360Z,5.77
2018-11-10T16:27:45.151Z,6.50
2018-11-10T16:30:15.585Z,5.63
2018-11-10T16:32:43.337Z,6.57
2018-11-10T16:35:10.771Z,6.03
2018-11-10T16:37:38.142Z,5.60
2018-11-10T16:40:07.083Z,7.60
2018-11-10T16:42:34.540Z,6.53
2018-11-10T16:45:01.878Z,6.03
2018-11-10T16:47:29.239Z,5.20
2018-11-10T16:49:56.587Z,5.70
2018-11-10T16:52:23.950Z,5.93
2018-11-10T16:54:51.284Z,6.63
2018-11-10T16:57:18.676Z,6.00
2018-11-10T16:59:46.033Z,5.87
2018-11-10T17:02:13.424Z,6.53
2018-11-10T17:04:40.794Z,6.53
2018-11-10T17:07:08.145Z,6.40
2018-11-10T17:09:35.517Z,5.63
2018-11-10T17:12:02.877Z,7.23
2018-11-10T17:14:30.294Z,6.77
2018-11-10T17:16:57.618Z,7.20
2018-11-10T17:19:24.989Z,7.13
2018-11-10T17:21:52.428Z,7.40
2018-11-10T17:24:19.715Z,7.67
2018-11-10T17:26:47.067Z,7.00
2018-11-10T17:29:14.431Z,7.35
2018-11-10T17:31:41.774Z,9.10
2018-11-10T17:34:09.163Z,8.33
2018-11-10T17:36:36.502Z,7.20
2018-11-10T17:39:05.127Z,8.30
2018-11-10T17:41:32.411Z,8.07
2018-11-10T17:44:01.100Z,6.70
2018-11-10T17:46:28.457Z,11.73
2018-11-10T17:48:55.853Z,11.70
2018-11-10T17:51:23.280Z,11.63
2018-11-10T17:53:50.656Z,8.33
2018-11-10T17:56:17.999Z,8.10
2018-11-10T17:58:45.408Z,6.60
2018-11-10T18:01:12.736Z,6.80
2018-11-10T18:03:40.230Z,5.60
2018-11-10T18:06:07.597Z,8.33
2018-11-10T18:08:34.986Z,7.07
2018-11-10T18:11:02.560Z,8.33
2018-11-10T18:13:29.972Z,9.53
2018-11-10T18:15:57.346Z,9.07
2018-11-10T18:18:24.795Z,7.73
2018-11-10T18:20:52.170Z,7.90
2018-11-10T18:23:19.527Z,6.50
2018-11-10T18:25:46.859Z,7.27
2018-11-10T18:28:14.250Z,7.57
2018-11-10T18:30:41.584Z,6.40
2018-11-10T18:33:08.977Z,7.27
2018-11-10T18:35:36.311Z,6.47
2018-11-10T18:38:03.676Z,6.60
2018-11-10T18:40:31.019Z,15.40
2018-11-10T18:42:58.403Z,10.97
2018-11-10T18:45:26.876Z,9.77
2018-11-10T18:47:54.219Z,8.40
2018-11-10T18:50:21.609Z,10.23
2018-11-10T18:52:48.995Z,9.27
2018-11-10T18:55:16.423Z,9.50
2018-11-10T18:57:44.277Z,7.90
2018-11-10T19:00:13.143Z,8.50
2018-11-10T19:02:40.871Z,8.20
2018-11-10T19:05:09.488Z,7.73
2018-11-10T19:07:37.268Z,7.03
2018-11-10T19:10:05.192Z,8.50
2018-11-10T19:12:32.527Z,7.37
2018-11-10T19:14:59.919Z,7.20
2018-11-10T19:17:27.264Z,9.40
2018-11-10T19:19:54.647Z,7.00
2018-11-10T19:22:21.999Z,7.10
2018-11-10T19:24:49.364Z,7.07
2018-11-10T19:27:16.737Z,7.53
2018-11-10T19:29:44.159Z,8.03
2018-11-10T19:32:11.585Z,7.23
2018-11-10T19:34:39.466Z,7.60
2018-11-10T19:37:06.827Z,7.00
2018-11-10T19:39:34.232Z,8.27
2018-11-10T19:42:01.608Z,7.47
2018-11-10T19:44:28.993Z,7.70
2018-11-10T19:46:56.577Z,6.60
2018-11-10T19:49:25.762Z,7.10
2018-11-10T19:51:53.336Z,7.00
2018-11-10T19:54:21.296Z,6.83
2018-11-10T19:56:48.828Z,5.83
2018-11-10T19:59:16.220Z,8.73
2018-11-10T20:01:43.646Z,7.67
2018-11-10T20:04:11.130Z,6.40
2018-11-10T20:06:38.633Z,7.10
2018-11-10T20:09:07.596Z,6.53
2018-11-10T20:11:35.122Z,7.10
2018-11-10T20:14:02.605Z,6.50
2018-11-10T20:16:29.879Z,6.80
2018-11-10T20:18:57.253Z,7.00
2018-11-10T20:21:24.604Z,7.33
2018-11-10T20:23:52.221Z,5.63
2018-11-10T20:26:23.947Z,6.67
2018-11-10T20:28:51.334Z,6.17
2018-11-10T20:31:18.811Z,6.27
2018-11-10T20:33:46.221Z,6.20
2018-11-10T20:36:33.301Z,7.40
2018-11-10T20:39:04.672Z,7.13
2018-11-10T20:41:32.606Z,7.37
2018-11-10T20:44:00.146Z,6.73
2018-11-10T20:46:27.488Z,7.30
2018-11-10T20:48:54.850Z,6.87
2018-11-10T20:51:22.276Z,7.80
2018-11-10T20:53:49.644Z,5.93
2018-11-10T20:56:16.994Z,5.87
2018-11-10T20:58:44.341Z,6.73
2018-11-10T21:01:11.760Z,8.07
2018-11-10T21:03:39.247Z,7.70
2018-11-10T21:06:06.603Z,8.50
2018-11-10T21:08:33.939Z,7.70
2018-11-10T21:11:01.313Z,9.40
2018-11-10T21:13:28.664Z,8.57
2018-11-10T21:15:56.047Z,9.60
2018-11-10T21:18:23.402Z,10.03
2018-11-10T21:20:50.759Z,8.23
2018-11-10T21:23:18.100Z,7.40
2018-11-10T21:25:45.476Z,6.50
2018-11-10T21:28:12.811Z,6.23
2018-11-10T21:30:40.185Z,6.40
2018-11-10T21:33:07.547Z,8.00
2018-11-10T21:35:35.021Z,6.13
2018-11-10T21:38:02.271Z,6.80
2018-11-10T21:40:29.647Z,6.70
2018-11-10T21:42:56.979Z,6.13
2018-11-10T21:45:24.347Z,6.40
2018-11-10T21:47:51.674Z,7.43
2018-11-10T21:50:19.973Z,7.53
2018-11-10T21:52:47.317Z,6.87
2018-11-10T21:55:15.935Z,6.33
2018-11-10T21:57:43.996Z,6.30
2018-11-10T22:00:12.665Z,6.80
2018-11-10T22:02:40.851Z,6.67
2018-11-10T22:05:08.240Z,5.40
2018-11-10T22:07:35.739Z,5.90
2018-11-10T22:10:03.223Z,6.60
2018-11-10T22:12:30.587Z,5.90
2018-11-10T22:14:57.947Z,5.90
2018-11-10T22:17:25.325Z,6.60
2018-11-10T22:19:52.691Z,6.50
2018-11-10T22:22:20.047Z,6.80
2018-11-10T22:24:47.404Z,6.57
2018-11-10T22:27:14.747Z,5.50
2018-11-10T22:29:42.115Z,5.50
2018-11-10T22:32:09.449Z,6.03
2018-11-10T22:34:36.854Z,6.97
2018-11-10T22:37:04.479Z,6.00
2018-11-10T22:39:31.840Z,6.07
2018-11-10T22:41:59.187Z,7.00
2018-11-10T22:44:26.542Z,6.10
2018-11-10T22:46:53.866Z,5.50
2018-11-10T22:49:21.216Z,6.60
2018-11-10T22:51:48.559Z,5.20
2018-11-10T22:54:15.928Z,6.67
2018-11-10T22:56:43.328Z,6.80
2018-11-10T22:59:10.661Z,5.13
2018-11-10T23:01:38.004Z,6.23
2018-11-10T23:04:05.359Z,6.40
2018-11-10T23:06:32.728Z,5.90
2018-11-10T23:09:00.068Z,5.77
2018-11-10T23:11:27.445Z,5.40
2018-11-10T23:13:54.807Z,6.20
2018-11-10T23:16:22.167Z,4.50
2018-11-10T23:18:49.500Z,4.63
2018-11-10T23:21:16.876Z,5.80
2018-11-10T23:23:44.209Z,5.00
2018-11-10T23:26:11.639Z,5.20
2018-11-10T23:28:38.997Z,4.33
2018-11-10T23:31:06.383Z,5.47
2018-11-10T23:33:33.754Z,5.77
2018-11-10T23:36:01.126Z,4.90
2018-11-10T23:38:28.450Z,4.67
2018-11-10T23:40:55.822Z,5.60
2018-11-10T23:43:23.151Z,4.67
2018-11-10T23:45:50.505Z,5.57
2018-11-10T23:48:17.838Z,4.90
2018-11-10T23:50:45.190Z,5.73
2018-11-10T23:53:13.893Z,5.17
2018-11-10T23:55:41.244Z,5.07
2018-11-10T23:58:08.575Z,5.27
